sensor_id;sensor_type;location;lat;lon;timestamp;P1;durP1;ratioP1;P2;durP2;ratioP2
39176;SDS011;24904;52.208;21.192;2022-07-29T00:04:29;13.50;;;5.20;;
39176;SDS011;24904;52.208;21.192;2022-07-29T00:09:32;8.80;;;4.80;;
39176;SDS011;24904;52.208;21.192;2022-07-29T00:14:35;16.50;;;5.40;;
39176;SDS011;24904;52.208;21.192;2022-07-29T00:19:38;9.40;;;4.90;;
39176;SDS011;24904;52.208;21.192;2022-07-29T00:24:41;10.30;;;4.60;;
39176;SDS011;24904;52.208;21.192;2022-07-29T00:29:45;9.90;;;5.30;;
39176;SDS011;24904;52.208;21.192;2022-07-29T00:34:48;15.20;;;5.10;;
39176;SDS011;24904;52.208;21.192;2022-07-29T00:40:10;11.40;;;4.60;;
39176;SDS011;24904;52.208;21.192;2022-07-29T00:45:14;8.30;;;4.50;;
39176;SDS011;24904;52.208;21.192;2022-07-29T00:50:18;10.60;;;4.60;;
39176;SDS011;24904;52.208;21.192;2022-07-29T00:55:22;10.00;;;4.70;;
39176;SDS011;24904;52.208;21.192;2022-07-29T01:00:26;7.40;;;3.80;;
39176;SDS011;24904;52.208;21.192;2022-07-29T01:05:30;11.20;;;3.60;;
39176;SDS011;24904;52.208;21.192;2022-07-29T01:10:34;7.20;;;3.90;;
39176;SDS011;24904;52.208;21.192;2022-07-29T01:15:41;8.10;;;3.60;;
39176;SDS011;24904;52.208;21.192;2022-07-29T01:21:12;7.10;;;4.10;;
39176;SDS011;24904;52.208;21.192;2022-07-29T01:26:37;6.90;;;3.70;;
39176;SDS011;24904;52.208;21.192;2022-07-29T01:31:48;6.80;;;3.30;;
39176;SDS011;24904;52.208;21.192;2022-07-29T01:37:00;6.80;;;3.40;;
39176;SDS011;24904;52.208;21.192;2022-07-29T01:42:12;6.70;;;3.30;;
39176;SDS011;24904;52.208;21.192;2022-07-29T01:47:23;18.40;;;3.40;;
39176;SDS011;24904;52.208;21.192;2022-07-29T01:52:36;5.10;;;3.00;;
39176;SDS011;24904;52.208;21.192;2022-07-29T01:57:46;7.90;;;3.10;;
39176;SDS011;24904;52.208;21.192;2022-07-29T02:02:51;6.90;;;3.30;;
39176;SDS011;24904;52.208;21.192;2022-07-29T02:07:56;8.90;;;3.50;;
39176;SDS011;24904;52.208;21.192;2022-07-29T02:13:02;5.70;;;3.40;;
39176;SDS011;24904;52.208;21.192;2022-07-29T02:18:09;7.70;;;3.40;;
39176;SDS011;24904;52.208;21.192;2022-07-29T02:23:18;9.00;;;3.40;;
39176;SDS011;24904;52.208;21.192;2022-07-29T02:28:29;10.00;;;3.50;;
39176;SDS011;24904;52.208;21.192;2022-07-29T02:33:34;8.10;;;3.60;;
39176;SDS011;24904;52.208;21.192;2022-07-29T02:38:40;6.30;;;2.70;;
39176;SDS011;24904;52.208;21.192;2022-07-29T02:44:01;6.30;;;2.70;;
39176;SDS011;24904;52.208;21.192;2022-07-29T02:49:09;6.50;;;2.60;;
39176;SDS011;24904;52.208;21.192;2022-07-29T02:54:21;10.70;;;3.10;;
39176;SDS011;24904;52.208;21.192;2022-07-29T02:59:33;5.20;;;2.50;;
39176;SDS011;24904;52.208;21.192;2022-07-29T03:04:41;7.70;;;3.30;;
39176;SDS011;24904;52.208;21.192;2022-07-29T03:09:47;7.80;;;3.00;;
39176;SDS011;24904;52.208;21.192;2022-07-29T03:14:53;5.10;;;2.80;;
39176;SDS011;24904;52.208;21.192;2022-07-29T03:19:59;6.00;;;3.00;;
39176;SDS011;24904;52.208;21.192;2022-07-29T03:25:08;5.10;;;3.00;;
39176;SDS011;24904;52.208;21.192;2022-07-29T03:30:14;6.60;;;3.80;;
39176;SDS011;24904;52.208;21.192;2022-07-29T03:35:20;8.00;;;3.20;;
39176;SDS011;24904;52.208;21.192;2022-07-29T03:40:25;6.60;;;3.30;;
39176;SDS011;24904;52.208;21.192;2022-07-29T03:45:34;7.60;;;3.50;;
39176;SDS011;24904;52.208;21.192;2022-07-29T03:50:41;8.90;;;3.10;;
39176;SDS011;24904;52.208;21.192;2022-07-29T03:55:46;8.40;;;2.90;;
39176;SDS011;24904;52.208;21.192;2022-07-29T04:00:54;6.80;;;3.00;;
39176;SDS011;24904;52.208;21.192;2022-07-29T04:06:00;5.50;;;2.80;;
39176;SDS011;24904;52.208;21.192;2022-07-29T04:11:07;7.20;;;2.40;;
39176;SDS011;24904;52.208;21.192;2022-07-29T04:16:12;4.30;;;2.50;;
39176;SDS011;24904;52.208;21.192;2022-07-29T04:21:17;3.60;;;2.20;;
39176;SDS011;24904;52.208;21.192;2022-07-29T04:26:22;6.30;;;2.40;;
39176;SDS011;24904;52.208;21.192;2022-07-29T04:31:27;7.40;;;2.70;;
39176;SDS011;24904;52.208;21.192;2022-07-29T04:36:31;4.20;;;2.20;;
39176;SDS011;24904;52.208;21.192;2022-07-29T04:41:36;6.60;;;2.00;;
39176;SDS011;24904;52.208;21.192;2022-07-29T04:46:39;6.50;;;2.00;;
39176;SDS011;24904;52.208;21.192;2022-07-29T04:51:42;3.70;;;1.90;;
39176;SDS011;24904;52.208;21.192;2022-07-29T04:56:45;8.70;;;1.70;;
39176;SDS011;24904;52.208;21.192;2022-07-29T05:01:48;6.10;;;2.00;;
39176;SDS011;24904;52.208;21.192;2022-07-29T05:06:52;3.10;;;1.70;;
39176;SDS011;24904;52.208;21.192;2022-07-29T05:11:55;7.00;;;1.70;;
39176;SDS011;24904;52.208;21.192;2022-07-29T05:16:58;8.50;;;1.70;;
39176;SDS011;24904;52.208;21.192;2022-07-29T05:22:01;4.60;;;2.20;;
39176;SDS011;24904;52.208;21.192;2022-07-29T05:27:04;6.30;;;1.20;;
39176;SDS011;24904;52.208;21.192;2022-07-29T05:32:07;3.30;;;1.30;;
39176;SDS011;24904;52.208;21.192;2022-07-29T05:37:11;3.50;;;1.20;;
39176;SDS011;24904;52.208;21.192;2022-07-29T05:42:14;2.30;;;1.10;;
39176;SDS011;24904;52.208;21.192;2022-07-29T05:47:17;2.30;;;1.10;;
39176;SDS011;24904;52.208;21.192;2022-07-29T05:52:20;3.60;;;1.00;;
39176;SDS011;24904;52.208;21.192;2022-07-29T05:57:23;5.60;;;1.10;;
39176;SDS011;24904;52.208;21.192;2022-07-29T06:02:27;2.00;;;1.40;;
39176;SDS011;24904;52.208;21.192;2022-07-29T06:07:30;2.80;;;1.10;;
39176;SDS011;24904;52.208;21.192;2022-07-29T06:12:33;5.80;;;1.50;;
39176;SDS011;24904;52.208;21.192;2022-07-29T06:17:36;4.00;;;1.00;;
39176;SDS011;24904;52.208;21.192;2022-07-29T06:22:39;3.90;;;1.20;;
39176;SDS011;24904;52.208;21.192;2022-07-29T06:27:43;3.40;;;1.10;;
39176;SDS011;24904;52.208;21.192;2022-07-29T06:32:46;7.70;;;1.20;;
39176;SDS011;24904;52.208;21.192;2022-07-29T06:37:49;3.10;;;0.80;;
39176;SDS011;24904;52.208;21.192;2022-07-29T06:42:53;3.60;;;0.90;;
39176;SDS011;24904;52.208;21.192;2022-07-29T06:47:56;1.90;;;0.70;;
39176;SDS011;24904;52.208;21.192;2022-07-29T06:52:59;2.80;;;0.90;;
39176;SDS011;24904;52.208;21.192;2022-07-29T06:58:02;2.00;;;1.00;;
39176;SDS011;24904;52.208;21.192;2022-07-29T07:03:05;1.00;;;0.60;;
39176;SDS011;24904;52.208;21.192;2022-07-29T07:08:09;2.60;;;1.10;;
39176;SDS011;24904;52.208;21.192;2022-07-29T07:13:12;12.50;;;1.30;;
39176;SDS011;24904;52.208;21.192;2022-07-29T07:18:16;5.20;;;1.00;;
39176;SDS011;24904;52.208;21.192;2022-07-29T07:23:19;3.30;;;0.80;;
39176;SDS011;24904;52.208;21.192;2022-07-29T07:28:22;4.00;;;0.80;;
39176;SDS011;24904;52.208;21.192;2022-07-29T07:33:25;2.30;;;0.70;;
39176;SDS011;24904;52.208;21.192;2022-07-29T07:38:29;2.80;;;1.50;;
39176;SDS011;24904;52.208;21.192;2022-07-29T07:43:32;5.00;;;1.00;;
39176;SDS011;24904;52.208;21.192;2022-07-29T07:48:35;2.80;;;1.00;;
39176;SDS011;24904;52.208;21.192;2022-07-29T07:53:38;4.30;;;0.90;;
39176;SDS011;24904;52.208;21.192;2022-07-29T07:58:42;4.90;;;1.00;;
39176;SDS011;24904;52.208;21.192;2022-07-29T08:03:45;2.30;;;1.00;;
39176;SDS011;24904;52.208;21.192;2022-07-29T08:08:48;3.70;;;0.90;;
39176;SDS011;24904;52.208;21.192;2022-07-29T08:13:51;9.40;;;1.20;;
39176;SDS011;24904;52.208;21.192;2022-07-29T08:18:54;3.40;;;1.10;;
39176;SDS011;24904;52.208;21.192;2022-07-29T08:23:58;2.60;;;0.90;;
39176;SDS011;24904;52.208;21.192;2022-07-29T08:29:15;4.00;;;0.90;;
39176;SDS011;24904;52.208;21.192;2022-07-29T08:34:18;4.20;;;1.00;;
39176;SDS011;24904;52.208;21.192;2022-07-29T08:39:22;4.10;;;1.50;;
39176;SDS011;24904;52.208;21.192;2022-07-29T08:44:25;3.20;;;0.80;;
39176;SDS011;24904;52.208;21.192;2022-07-29T08:49:29;1.90;;;0.90;;
39176;SDS011;24904;52.208;21.192;2022-07-29T08:54:34;6.40;;;1.20;;
39176;SDS011;24904;52.208;21.192;2022-07-29T08:59:38;2.70;;;0.90;;
39176;SDS011;24904;52.208;21.192;2022-07-29T09:04:44;5.00;;;0.90;;
39176;SDS011;24904;52.208;21.192;2022-07-29T09:09:47;2.90;;;1.10;;
39176;SDS011;24904;52.208;21.192;2022-07-29T09:14:51;4.20;;;1.70;;
39176;SDS011;24904;52.208;21.192;2022-07-29T09:19:54;1.80;;;0.80;;
39176;SDS011;24904;52.208;21.192;2022-07-29T09:25:12;7.10;;;0.90;;
39176;SDS011;24904;52.208;21.192;2022-07-29T09:30:15;4.50;;;1.00;;
39176;SDS011;24904;52.208;21.192;2022-07-29T09:35:19;4.70;;;1.00;;
39176;SDS011;24904;52.208;21.192;2022-07-29T09:40:25;2.80;;;1.00;;
39176;SDS011;24904;52.208;21.192;2022-07-29T09:45:30;4.00;;;0.70;;
39176;SDS011;24904;52.208;21.192;2022-07-29T09:50:35;4.80;;;0.90;;
39176;SDS011;24904;52.208;21.192;2022-07-29T09:55:49;3.90;;;0.90;;
39176;SDS011;24904;52.208;21.192;2022-07-29T10:00:53;3.20;;;0.80;;
39176;SDS011;24904;52.208;21.192;2022-07-29T10:06:07;3.00;;;1.10;;
39176;SDS011;24904;52.208;21.192;2022-07-29T10:11:12;5.10;;;1.20;;
39176;SDS011;24904;52.208;21.192;2022-07-29T10:16:16;4.40;;;1.10;;
39176;SDS011;24904;52.208;21.192;2022-07-29T10:21:19;1.10;;;0.60;;
39176;SDS011;24904;52.208;21.192;2022-07-29T10:26:23;6.40;;;1.00;;
39176;SDS011;24904;52.208;21.192;2022-07-29T10:31:28;5.30;;;1.10;;
39176;SDS011;24904;52.208;21.192;2022-07-29T10:36:43;3.90;;;0.80;;
39176;SDS011;24904;52.208;21.192;2022-07-29T10:42:08;2.20;;;1.00;;
39176;SDS011;24904;52.208;21.192;2022-07-29T10:47:22;3.80;;;1.40;;
39176;SDS011;24904;52.208;21.192;2022-07-29T10:52:36;2.70;;;0.80;;
39176;SDS011;24904;52.208;21.192;2022-07-29T11:08:53;5.60;;;1.00;;
39176;SDS011;24904;52.208;21.192;2022-07-29T11:14:21;4.00;;;2.40;;
39176;SDS011;24904;52.208;21.192;2022-07-29T11:25:33;2.50;;;0.50;;
39176;SDS011;24904;52.208;21.192;2022-07-29T11:30:47;3.60;;;0.80;;
39176;SDS011;24904;52.208;21.192;2022-07-29T11:41:22;2.70;;;0.90;;
39176;SDS011;24904;52.208;21.192;2022-07-29T11:46:48;3.50;;;1.10;;
39176;SDS011;24904;52.208;21.192;2022-07-29T11:51:52;2.30;;;0.70;;
39176;SDS011;24904;52.208;21.192;2022-07-29T11:56:57;1.30;;;0.70;;
39176;SDS011;24904;52.208;21.192;2022-07-29T12:02:00;6.60;;;1.00;;
39176;SDS011;24904;52.208;21.192;2022-07-29T12:07:04;6.20;;;0.90;;
39176;SDS011;24904;52.208;21.192;2022-07-29T12:12:07;2.00;;;0.90;;
39176;SDS011;24904;52.208;21.192;2022-07-29T12:17:24;1.80;;;0.90;;
39176;SDS011;24904;52.208;21.192;2022-07-29T12:22:29;3.20;;;1.40;;
39176;SDS011;24904;52.208;21.192;2022-07-29T12:27:33;2.50;;;0.90;;
39176;SDS011;24904;52.208;21.192;2022-07-29T12:32:37;4.20;;;0.80;;
39176;SDS011;24904;52.208;21.192;2022-07-29T12:37:43;5.90;;;0.70;;
39176;SDS011;24904;52.208;21.192;2022-07-29T12:48:17;3.30;;;1.00;;
39176;SDS011;24904;52.208;21.192;2022-07-29T12:53:34;8.20;;;0.90;;
39176;SDS011;24904;52.208;21.192;2022-07-29T12:58:38;4.10;;;0.90;;
39176;SDS011;24904;52.208;21.192;2022-07-29T13:03:53;3.80;;;0.80;;
39176;SDS011;24904;52.208;21.192;2022-07-29T13:09:02;2.70;;;0.80;;
39176;SDS011;24904;52.208;21.192;2022-07-29T13:14:08;1.50;;;0.70;;
39176;SDS011;24904;52.208;21.192;2022-07-29T13:19:12;3.80;;;0.80;;
39176;SDS011;24904;52.208;21.192;2022-07-29T13:24:16;5.80;;;1.10;;
39176;SDS011;24904;52.208;21.192;2022-07-29T13:29:19;5.10;;;0.90;;
39176;SDS011;24904;52.208;21.192;2022-07-29T13:34:22;1.50;;;0.70;;
39176;SDS011;24904;52.208;21.192;2022-07-29T13:39:25;2.50;;;0.60;;
39176;SDS011;24904;52.208;21.192;2022-07-29T13:44:28;4.90;;;0.80;;
39176;SDS011;24904;52.208;21.192;2022-07-29T13:49:31;3.90;;;1.10;;
39176;SDS011;24904;52.208;21.192;2022-07-29T13:54:35;1.70;;;0.60;;
39176;SDS011;24904;52.208;21.192;2022-07-29T13:59:38;4.20;;;0.70;;
39176;SDS011;24904;52.208;21.192;2022-07-29T14:04:42;1.90;;;0.80;;
39176;SDS011;24904;52.208;21.192;2022-07-29T14:09:46;5.90;;;0.80;;
39176;SDS011;24904;52.208;21.192;2022-07-29T14:14:49;4.20;;;0.90;;
39176;SDS011;24904;52.208;21.192;2022-07-29T14:19:52;5.70;;;0.80;;
39176;SDS011;24904;52.208;21.192;2022-07-29T14:24:55;3.50;;;0.90;;
39176;SDS011;24904;52.208;21.192;2022-07-29T14:29:58;3.40;;;1.00;;
39176;SDS011;24904;52.208;21.192;2022-07-29T14:35:02;2.50;;;0.90;;
39176;SDS011;24904;52.208;21.192;2022-07-29T14:40:06;3.40;;;1.10;;
39176;SDS011;24904;52.208;21.192;2022-07-29T14:45:11;1.30;;;0.80;;
39176;SDS011;24904;52.208;21.192;2022-07-29T14:50:14;3.90;;;0.90;;
39176;SDS011;24904;52.208;21.192;2022-07-29T14:55:17;4.70;;;0.70;;
39176;SDS011;24904;52.208;21.192;2022-07-29T15:00:21;8.60;;;1.00;;
39176;SDS011;24904;52.208;21.192;2022-07-29T15:05:24;2.20;;;1.00;;
39176;SDS011;24904;52.208;21.192;2022-07-29T15:10:27;2.30;;;0.70;;
39176;SDS011;24904;52.208;21.192;2022-07-29T15:15:31;6.90;;;1.00;;
39176;SDS011;24904;52.208;21.192;2022-07-29T15:20:34;11.20;;;1.20;;
39176;SDS011;24904;52.208;21.192;2022-07-29T15:25:37;5.00;;;1.00;;
39176;SDS011;24904;52.208;21.192;2022-07-29T15:30:41;1.10;;;0.70;;
39176;SDS011;24904;52.208;21.192;2022-07-29T15:35:44;5.60;;;0.80;;
39176;SDS011;24904;52.208;21.192;2022-07-29T15:40:47;4.10;;;0.90;;
39176;SDS011;24904;52.208;21.192;2022-07-29T15:45:50;9.00;;;0.90;;
39176;SDS011;24904;52.208;21.192;2022-07-29T15:51:11;3.60;;;1.10;;
39176;SDS011;24904;52.208;21.192;2022-07-29T15:56:15;9.40;;;1.10;;
39176;SDS011;24904;52.208;21.192;2022-07-29T16:01:18;4.30;;;0.90;;
39176;SDS011;24904;52.208;21.192;2022-07-29T16:06:21;4.30;;;0.90;;
39176;SDS011;24904;52.208;21.192;2022-07-29T16:11:24;2.40;;;0.90;;
39176;SDS011;24904;52.208;21.192;2022-07-29T16:16:27;3.60;;;1.10;;
39176;SDS011;24904;52.208;21.192;2022-07-29T16:21:31;3.60;;;1.20;;
39176;SDS011;24904;52.208;21.192;2022-07-29T16:26:35;2.30;;;0.90;;
39176;SDS011;24904;52.208;21.192;2022-07-29T16:31:38;1.90;;;0.80;;
39176;SDS011;24904;52.208;21.192;2022-07-29T16:36:41;8.40;;;1.20;;
39176;SDS011;24904;52.208;21.192;2022-07-29T16:41:44;1.60;;;0.90;;
39176;SDS011;24904;52.208;21.192;2022-07-29T16:46:48;3.40;;;1.50;;
39176;SDS011;24904;52.208;21.192;2022-07-29T16:51:51;1.50;;;0.90;;
39176;SDS011;24904;52.208;21.192;2022-07-29T16:56:54;5.80;;;1.20;;
39176;SDS011;24904;52.208;21.192;2022-07-29T17:01:57;5.60;;;2.00;;
39176;SDS011;24904;52.208;21.192;2022-07-29T17:07:02;4.20;;;1.00;;
39176;SDS011;24904;52.208;21.192;2022-07-29T17:12:06;4.60;;;1.30;;
39176;SDS011;24904;52.208;21.192;2022-07-29T17:17:10;5.60;;;1.20;;
39176;SDS011;24904;52.208;21.192;2022-07-29T17:22:13;5.10;;;1.10;;
39176;SDS011;24904;52.208;21.192;2022-07-29T17:27:16;3.30;;;0.90;;
39176;SDS011;24904;52.208;21.192;2022-07-29T17:32:19;2.50;;;1.30;;
39176;SDS011;24904;52.208;21.192;2022-07-29T17:37:23;7.40;;;1.20;;
39176;SDS011;24904;52.208;21.192;2022-07-29T17:42:26;3.70;;;1.00;;
39176;SDS011;24904;52.208;21.192;2022-07-29T17:47:29;1.90;;;0.90;;
39176;SDS011;24904;52.208;21.192;2022-07-29T17:52:32;2.70;;;0.80;;
39176;SDS011;24904;52.208;21.192;2022-07-29T17:57:36;2.40;;;1.00;;
39176;SDS011;24904;52.208;21.192;2022-07-29T18:02:39;2.60;;;1.00;;
39176;SDS011;24904;52.208;21.192;2022-07-29T18:07:42;5.00;;;1.10;;
39176;SDS011;24904;52.208;21.192;2022-07-29T18:12:45;2.70;;;1.10;;
39176;SDS011;24904;52.208;21.192;2022-07-29T18:17:49;3.40;;;1.10;;
39176;SDS011;24904;52.208;21.192;2022-07-29T18:22:52;2.00;;;1.10;;
39176;SDS011;24904;52.208;21.192;2022-07-29T18:27:55;5.80;;;1.80;;
39176;SDS011;24904;52.208;21.192;2022-07-29T18:32:58;2.20;;;1.10;;
39176;SDS011;24904;52.208;21.192;2022-07-29T18:38:02;4.50;;;1.10;;
39176;SDS011;24904;52.208;21.192;2022-07-29T18:43:06;5.70;;;1.30;;
39176;SDS011;24904;52.208;21.192;2022-07-29T18:48:09;8.90;;;1.40;;
39176;SDS011;24904;52.208;21.192;2022-07-29T18:53:13;7.40;;;1.30;;
39176;SDS011;24904;52.208;21.192;2022-07-29T18:58:16;6.30;;;1.40;;
39176;SDS011;24904;52.208;21.192;2022-07-29T19:03:19;4.00;;;1.50;;
39176;SDS011;24904;52.208;21.192;2022-07-29T19:08:22;2.90;;;1.40;;
39176;SDS011;24904;52.208;21.192;2022-07-29T19:13:25;2.50;;;1.20;;
39176;SDS011;24904;52.208;21.192;2022-07-29T19:18:28;3.30;;;1.30;;
39176;SDS011;24904;52.208;21.192;2022-07-29T19:23:31;5.80;;;1.70;;
39176;SDS011;24904;52.208;21.192;2022-07-29T19:28:35;4.80;;;1.50;;
39176;SDS011;24904;52.208;21.192;2022-07-29T19:33:38;4.20;;;1.50;;
39176;SDS011;24904;52.208;21.192;2022-07-29T19:38:41;6.00;;;1.40;;
39176;SDS011;24904;52.208;21.192;2022-07-29T19:43:44;6.20;;;1.50;;
39176;SDS011;24904;52.208;21.192;2022-07-29T19:48:48;3.20;;;1.40;;
39176;SDS011;24904;52.208;21.192;2022-07-29T19:53:51;2.80;;;1.40;;
39176;SDS011;24904;52.208;21.192;2022-07-29T19:58:54;7.70;;;1.10;;
39176;SDS011;24904;52.208;21.192;2022-07-29T20:03:57;3.80;;;1.50;;
39176;SDS011;24904;52.208;21.192;2022-07-29T20:09:00;2.90;;;1.30;;
39176;SDS011;24904;52.208;21.192;2022-07-29T20:14:05;3.40;;;1.30;;
39176;SDS011;24904;52.208;21.192;2022-07-29T20:19:09;4.80;;;1.30;;
39176;SDS011;24904;52.208;21.192;2022-07-29T20:24:12;5.50;;;1.10;;
39176;SDS011;24904;52.208;21.192;2022-07-29T20:29:15;6.70;;;1.70;;
39176;SDS011;24904;52.208;21.192;2022-07-29T20:34:18;2.80;;;1.50;;
39176;SDS011;24904;52.208;21.192;2022-07-29T20:39:21;4.40;;;1.20;;
39176;SDS011;24904;52.208;21.192;2022-07-29T20:44:24;6.10;;;1.30;;
39176;SDS011;24904;52.208;21.192;2022-07-29T20:49:27;3.00;;;1.30;;
39176;SDS011;24904;52.208;21.192;2022-07-29T20:54:31;4.30;;;1.40;;
39176;SDS011;24904;52.208;21.192;2022-07-29T20:59:34;3.50;;;1.10;;
39176;SDS011;24904;52.208;21.192;2022-07-29T21:04:37;8.60;;;1.50;;
39176;SDS011;24904;52.208;21.192;2022-07-29T21:09:41;7.70;;;1.30;;
39176;SDS011;24904;52.208;21.192;2022-07-29T21:14:44;7.10;;;1.40;;
39176;SDS011;24904;52.208;21.192;2022-07-29T21:19:48;4.10;;;1.30;;
39176;SDS011;24904;52.208;21.192;2022-07-29T21:24:52;2.40;;;1.00;;
39176;SDS011;24904;52.208;21.192;2022-07-29T21:29:55;2.60;;;1.20;;
39176;SDS011;24904;52.208;21.192;2022-07-29T21:34:59;5.90;;;1.10;;
39176;SDS011;24904;52.208;21.192;2022-07-29T21:40:02;4.20;;;1.10;;
39176;SDS011;24904;52.208;21.192;2022-07-29T21:45:07;6.00;;;1.20;;
39176;SDS011;24904;52.208;21.192;2022-07-29T21:50:11;3.20;;;1.20;;
39176;SDS011;24904;52.208;21.192;2022-07-29T21:55:14;3.70;;;1.00;;
39176;SDS011;24904;52.208;21.192;2022-07-29T22:00:17;2.60;;;1.50;;
39176;SDS011;24904;52.208;21.192;2022-07-29T22:05:21;2.00;;;1.20;;
39176;SDS011;24904;52.208;21.192;2022-07-29T22:10:24;6.00;;;1.10;;
39176;SDS011;24904;52.208;21.192;2022-07-29T22:15:29;2.90;;;1.30;;
39176;SDS011;24904;52.208;21.192;2022-07-29T22:20:32;4.40;;;1.20;;
39176;SDS011;24904;52.208;21.192;2022-07-29T22:25:36;2.00;;;1.20;;
39176;SDS011;24904;52.208;21.192;2022-07-29T22:30:39;2.40;;;1.30;;
39176;SDS011;24904;52.208;21.192;2022-07-29T22:35:42;2.20;;;1.20;;
39176;SDS011;24904;52.208;21.192;2022-07-29T22:40:45;2.30;;;1.40;;
39176;SDS011;24904;52.208;21.192;2022-07-29T22:45:49;5.30;;;1.80;;
39176;SDS011;24904;52.208;21.192;2022-07-29T22:50:53;7.40;;;1.40;;
39176;SDS011;24904;52.208;21.192;2022-07-29T22:55:56;7.10;;;1.20;;
39176;SDS011;24904;52.208;21.192;2022-07-29T23:00:59;3.20;;;1.20;;
39176;SDS011;24904;52.208;21.192;2022-07-29T23:06:02;2.80;;;1.60;;
39176;SDS011;24904;52.208;21.192;2022-07-29T23:11:06;2.30;;;1.30;;
39176;SDS011;24904;52.208;21.192;2022-07-29T23:16:09;2.50;;;1.10;;
39176;SDS011;24904;52.208;21.192;2022-07-29T23:21:12;4.90;;;1.70;;
39176;SDS011;24904;52.208;21.192;2022-07-29T23:26:16;2.80;;;1.50;;
39176;SDS011;24904;52.208;21.192;2022-07-29T23:31:19;3.50;;;1.00;;
39176;SDS011;24904;52.208;21.192;2022-07-29T23:36:22;9.50;;;1.40;;
39176;SDS011;24904;52.208;21.192;2022-07-29T23:41:28;2.30;;;1.30;;
39176;SDS011;24904;52.208;21.192;2022-07-29T23:46:32;3.80;;;1.10;;
39176;SDS011;24904;52.208;21.192;2022-07-29T23:51:35;2.40;;;1.10;;
39176;SDS011;24904;52.208;21.192;2022-07-29T23:56:38;8.60;;;1.70;;
